createdAt,value
2019-02-14T00:00:13.192Z,2.10
2019-02-14T00:02:42.005Z,2.10
2019-02-14T00:05:16.419Z,2.00
2019-02-14T00:07:41.422Z,2.10
2019-02-14T00:10:10.450Z,2.10
2019-02-14T00:12:39.300Z,2.20
2019-02-14T00:15:11.179Z,2.20
2019-02-14T00:17:39.909Z,2.20
2019-02-14T00:20:09.945Z,2.20
2019-02-14T00:22:38.736Z,2.00
2019-02-14T00:25:07.920Z,1.90
2019-02-14T00:27:36.782Z,1.80
2019-02-14T00:30:08.190Z,1.80
2019-02-14T00:32:37.289Z,1.90
2019-02-14T00:35:06.827Z,2.00
2019-02-14T00:37:35.600Z,2.00
2019-02-14T00:40:06.473Z,1.80
2019-02-14T00:42:35.263Z,1.80
2019-02-14T00:45:04.621Z,1.80
2019-02-14T00:47:33.323Z,1.70
2019-02-14T00:50:01.936Z,1.60
2019-02-14T00:52:30.636Z,1.50
2019-02-14T00:54:59.320Z,1.30
2019-02-14T00:57:28.045Z,1.30
2019-02-14T00:59:56.798Z,1.30
2019-02-14T01:02:25.453Z,1.20
2019-02-14T01:04:54.150Z,1.10
2019-02-14T01:07:22.893Z,1.00
2019-02-14T01:09:51.599Z,1.00
2019-02-14T01:12:20.389Z,1.00
2019-02-14T01:14:49.230Z,1.10
2019-02-14T01:17:18.031Z,1.40
2019-02-14T01:19:46.764Z,1.70
2019-02-14T01:22:15.622Z,1.70
2019-02-14T01:24:44.481Z,1.70
2019-02-14T01:27:13.261Z,1.70
2019-02-14T01:29:42.073Z,1.50
2019-02-14T01:32:10.971Z,1.40
2019-02-14T01:34:39.748Z,1.30
2019-02-14T01:37:08.614Z,1.30
2019-02-14T01:39:37.402Z,1.30
2019-02-14T01:42:06.153Z,1.20
2019-02-14T01:44:34.873Z,1.10
2019-02-14T01:47:03.651Z,1.20
2019-02-14T01:49:32.380Z,1.20
2019-02-14T01:52:01.163Z,1.30
2019-02-14T01:54:29.933Z,1.30
2019-02-14T01:56:58.635Z,1.20
2019-02-14T01:59:27.389Z,1.20
2019-02-14T02:01:56.539Z,1.20
2019-02-14T02:04:25.252Z,1.30
2019-02-14T02:06:53.834Z,1.30
2019-02-14T02:09:22.538Z,1.30
2019-02-14T02:11:51.291Z,1.30
2019-02-14T02:14:20.017Z,1.20
2019-02-14T02:16:48.762Z,1.20
2019-02-14T02:19:17.590Z,1.10
2019-02-14T02:21:46.291Z,1.20
2019-02-14T02:24:15.097Z,1.10
2019-02-14T02:26:43.773Z,1.10
2019-02-14T02:29:12.582Z,1.00
2019-02-14T02:31:41.262Z,0.90
2019-02-14T02:34:09.957Z,0.90
2019-02-14T02:36:38.557Z,0.80
2019-02-14T02:39:08.071Z,0.80
2019-02-14T02:41:36.752Z,0.70
2019-02-14T02:44:05.399Z,0.70
2019-02-14T02:46:34.100Z,0.70
2019-02-14T02:49:02.823Z,0.60
2019-02-14T02:51:31.490Z,0.50
2019-02-14T02:54:00.220Z,0.40
2019-02-14T02:56:29.017Z,0.30
2019-02-14T02:58:57.644Z,0.30
2019-02-14T03:01:26.366Z,0.40
2019-02-14T03:03:55.127Z,0.50
2019-02-14T03:06:23.821Z,0.40
2019-02-14T03:08:52.576Z,0.30
2019-02-14T03:11:21.267Z,0.30
2019-02-14T03:13:49.992Z,0.20
2019-02-14T03:16:18.751Z,0.20
2019-02-14T03:18:47.575Z,0.10
2019-02-14T03:21:16.310Z,0.20
2019-02-14T03:23:44.964Z,0.10
2019-02-14T03:26:13.734Z,0.30
2019-02-14T03:28:42.437Z,0.40
2019-02-14T03:31:11.223Z,0.50
2019-02-14T03:33:39.954Z,0.40
2019-02-14T03:36:08.595Z,0.30
2019-02-14T03:38:37.272Z,0.20
2019-02-14T03:41:06.330Z,0.20
2019-02-14T03:43:35.068Z,0.30
2019-02-14T03:46:04.042Z,0.40
2019-02-14T03:48:32.690Z,0.50
2019-02-14T03:51:01.478Z,0.50
2019-02-14T03:53:30.178Z,0.40
2019-02-14T03:55:58.912Z,0.30
2019-02-14T03:58:27.568Z,0.30
2019-02-14T04:00:56.288Z,0.40
2019-02-14T04:03:24.956Z,0.40
2019-02-14T04:05:53.712Z,0.40
2019-02-14T04:08:22.507Z,0.40
2019-02-14T04:10:51.134Z,0.40
2019-02-14T04:13:19.743Z,0.50
2019-02-14T04:15:48.514Z,0.50
2019-02-14T04:18:17.321Z,0.40
2019-02-14T04:20:45.950Z,0.40
2019-02-14T04:23:14.734Z,0.30
2019-02-14T04:25:43.484Z,0.30
2019-02-14T04:28:12.284Z,0.20
2019-02-14T04:30:41.092Z,0.20
2019-02-14T04:33:10.154Z,0.20
2019-02-14T04:35:38.896Z,0.20
2019-02-14T04:38:07.643Z,0.10
2019-02-14T04:40:36.262Z,0.00
2019-02-14T04:43:05.029Z,0.00
2019-02-14T04:45:33.681Z,-0.10
2019-02-14T04:48:02.363Z,0.00
2019-02-14T04:50:31.026Z,-0.10
2019-02-14T04:52:59.720Z,-0.10
2019-02-14T04:55:28.306Z,-0.10
2019-02-14T04:57:56.992Z,-0.10
2019-02-14T05:00:25.722Z,0.00
2019-02-14T05:02:54.324Z,0.10
2019-02-14T05:05:23.090Z,0.10
2019-02-14T05:07:51.765Z,0.00
2019-02-14T05:10:20.476Z,0.00
2019-02-14T05:12:49.216Z,0.00
2019-02-14T05:15:17.960Z,0.10
2019-02-14T05:17:46.651Z,0.10
2019-02-14T05:20:15.366Z,0.00
2019-02-14T05:22:44.013Z,0.00
2019-02-14T05:25:12.857Z,0.00
2019-02-14T05:27:41.519Z,0.00
2019-02-14T05:30:13.146Z,-0.10
2019-02-14T05:32:41.906Z,-0.10
2019-02-14T05:35:10.695Z,-0.10
2019-02-14T05:37:39.343Z,0.00
2019-02-14T05:40:10.294Z,0.10
2019-02-14T05:42:39.324Z,0.10
2019-02-14T05:45:10.801Z,0.00
2019-02-14T05:47:39.544Z,-0.10
2019-02-14T05:50:10.905Z,-0.10
2019-02-14T05:52:39.615Z,-0.10
2019-02-14T05:55:10.728Z,-0.10
2019-02-14T05:57:39.387Z,-0.20
2019-02-14T06:00:11.117Z,-0.20
2019-02-14T06:02:39.844Z,-0.10
2019-02-14T06:05:08.771Z,0.10
2019-02-14T06:07:37.484Z,0.10
2019-02-14T06:10:09.970Z,0.10
2019-02-14T06:12:38.742Z,0.10
2019-02-14T06:15:10.354Z,0.00
2019-02-14T06:17:39.107Z,-0.10
2019-02-14T06:20:09.966Z,-0.20
2019-02-14T06:22:38.776Z,-0.40
2019-02-14T06:25:09.969Z,-0.50
2019-02-14T06:27:38.725Z,-0.40
2019-02-14T06:30:10.393Z,0.00
2019-02-14T06:32:39.193Z,0.00
2019-02-14T06:35:09.530Z,0.10
2019-02-14T06:37:38.256Z,0.00
2019-02-14T06:40:09.837Z,-0.20
2019-02-14T06:42:38.480Z,-0.30
2019-02-14T06:45:10.486Z,-0.30
2019-02-14T06:47:39.333Z,-0.30
2019-02-14T06:50:09.284Z,-0.20
2019-02-14T06:52:38.088Z,-0.20
2019-02-14T06:55:07.811Z,-0.10
2019-02-14T06:57:36.531Z,-0.10
2019-02-14T07:00:08.249Z,0.00
2019-02-14T07:02:36.870Z,0.10
2019-02-14T07:05:07.740Z,0.10
2019-02-14T07:07:36.530Z,0.20
2019-02-14T07:10:07.791Z,0.30
2019-02-14T07:12:36.553Z,0.30
2019-02-14T07:15:08.321Z,0.50
2019-02-14T07:17:37.055Z,0.90
2019-02-14T07:20:08.889Z,1.30
2019-02-14T07:22:38.804Z,1.90
2019-02-14T07:25:09.955Z,2.60
2019-02-14T07:27:38.633Z,2.70
2019-02-14T07:30:10.286Z,2.60
2019-02-14T07:32:39.016Z,2.40
2019-02-14T07:35:09.532Z,2.40
2019-02-14T07:37:38.332Z,2.70
2019-02-14T07:40:09.878Z,2.90
2019-02-14T07:42:38.643Z,3.00
2019-02-14T07:45:10.346Z,2.90
2019-02-14T07:47:39.123Z,2.80
2019-02-14T07:50:10.266Z,2.90
2019-02-14T07:52:38.952Z,3.20
2019-02-14T07:55:10.010Z,3.50
2019-02-14T07:57:38.910Z,3.30
2019-02-14T08:00:10.766Z,3.00
2019-02-14T08:02:40.009Z,2.60
2019-02-14T08:05:09.589Z,2.50
2019-02-14T08:07:38.350Z,2.40
2019-02-14T08:10:10.273Z,2.50
2019-02-14T08:12:39.206Z,2.60
2019-02-14T08:15:10.753Z,2.90
2019-02-14T08:17:39.642Z,3.00
2019-02-14T08:20:11.035Z,3.20
2019-02-14T08:22:39.705Z,3.30
2019-02-14T08:25:10.515Z,3.40
2019-02-14T08:27:39.305Z,3.80
2019-02-14T08:30:11.721Z,4.30
2019-02-14T08:32:40.554Z,4.90
2019-02-14T08:35:09.514Z,5.10
2019-02-14T08:37:45.014Z,5.00
2019-02-14T08:40:11.659Z,5.20
2019-02-14T08:42:40.476Z,6.40
2019-02-14T08:45:11.839Z,7.10
2019-02-14T08:47:41.026Z,7.40
2019-02-14T08:50:10.809Z,8.40
2019-02-14T08:52:39.681Z,9.50
2019-02-14T08:55:10.179Z,9.60
2019-02-14T08:57:38.978Z,9.30
2019-02-14T09:00:10.994Z,9.00
2019-02-14T09:02:39.822Z,8.20
2019-02-14T09:05:09.093Z,8.10
2019-02-14T09:07:37.841Z,8.90
2019-02-14T09:10:09.869Z,10.10
2019-02-14T09:12:38.693Z,11.30
2019-02-14T09:15:10.558Z,12.10
2019-02-14T09:17:39.509Z,11.90
2019-02-14T09:20:11.254Z,10.50
2019-02-14T09:22:40.178Z,9.40
2019-02-14T09:25:08.930Z,8.90
2019-02-14T09:27:37.649Z,9.80
2019-02-14T09:30:09.444Z,10.60
2019-02-14T09:32:38.284Z,11.00
2019-02-14T09:35:09.005Z,11.00
2019-02-14T09:37:37.958Z,11.20
2019-02-14T09:40:09.541Z,11.70
2019-02-14T09:42:38.312Z,12.30
2019-02-14T09:45:10.202Z,12.90
2019-02-14T09:47:38.911Z,13.60
2019-02-14T09:50:10.387Z,14.20
2019-02-14T09:52:39.493Z,14.60
2019-02-14T09:55:11.248Z,14.00
2019-02-14T09:57:40.065Z,14.00
2019-02-14T10:00:11.510Z,14.10
2019-02-14T10:02:40.367Z,14.00
2019-02-14T10:05:10.102Z,13.90
2019-02-14T10:07:38.893Z,14.30
2019-02-14T10:10:11.214Z,14.00
2019-02-14T10:12:40.024Z,13.50
2019-02-14T10:15:11.813Z,12.80
2019-02-14T10:17:40.642Z,12.40
2019-02-14T10:20:12.548Z,12.00
2019-02-14T10:22:41.370Z,11.60
2019-02-14T10:25:10.680Z,11.50
2019-02-14T10:27:39.517Z,11.70
2019-02-14T10:30:11.390Z,11.60
2019-02-14T10:32:40.123Z,11.50
2019-02-14T10:35:08.942Z,11.40
2019-02-14T10:37:37.886Z,11.30
2019-02-14T10:40:09.691Z,11.00
2019-02-14T10:42:38.337Z,10.80
2019-02-14T10:45:10.025Z,11.00
2019-02-14T10:47:38.891Z,11.20
2019-02-14T10:50:10.026Z,11.20
2019-02-14T10:52:38.826Z,11.20
2019-02-14T10:55:10.173Z,11.00
2019-02-14T10:57:38.974Z,10.70
2019-02-14T11:00:12.067Z,10.60
2019-02-14T11:02:40.867Z,10.30
2019-02-14T11:05:09.647Z,10.20
2019-02-14T11:07:38.399Z,10.00
2019-02-14T11:10:09.907Z,9.80
2019-02-14T11:12:38.543Z,9.80
2019-02-14T11:15:10.099Z,10.00
2019-02-14T11:17:38.766Z,10.30
2019-02-14T11:20:10.355Z,10.50
2019-02-14T11:22:39.052Z,10.60
2019-02-14T11:25:10.572Z,10.90
2019-02-14T11:27:39.334Z,11.10
2019-02-14T11:30:11.084Z,11.10
2019-02-14T11:32:39.955Z,11.30
2019-02-14T11:35:10.480Z,11.50
2019-02-14T11:37:39.229Z,11.90
2019-02-14T11:40:10.801Z,12.10
2019-02-14T11:42:39.623Z,12.20
2019-02-14T11:45:11.470Z,12.00
2019-02-14T11:47:40.270Z,11.90
2019-02-14T11:50:11.045Z,11.80
2019-02-14T11:52:39.801Z,11.80
2019-02-14T11:55:10.776Z,11.70
2019-02-14T11:57:39.781Z,11.50
2019-02-14T12:00:11.484Z,11.30
2019-02-14T12:02:40.226Z,11.20
2019-02-14T12:05:09.020Z,11.10
2019-02-14T12:07:37.721Z,11.00
2019-02-14T12:10:13.402Z,11.00
2019-02-14T12:12:39.799Z,11.10
2019-02-14T12:15:11.150Z,11.10
2019-02-14T12:17:39.859Z,11.10
2019-02-14T12:20:12.836Z,11.20
2019-02-14T12:22:46.648Z,11.30
2019-02-14T12:25:15.311Z,11.30
2019-02-14T12:27:46.234Z,11.20
2019-02-14T12:30:15.850Z,11.20
2019-02-14T12:32:44.630Z,11.10
2019-02-14T12:35:13.772Z,11.10
2019-02-14T12:37:42.482Z,11.10
2019-02-14T12:40:13.353Z,11.00
2019-02-14T12:42:42.175Z,11.10
2019-02-14T12:45:20.199Z,11.10
2019-02-14T12:47:44.372Z,11.20
2019-02-14T12:50:13.387Z,11.20
2019-02-14T12:52:42.127Z,11.20
2019-02-14T12:55:10.901Z,11.30
2019-02-14T12:57:39.736Z,11.30
2019-02-14T13:00:11.358Z,11.30
2019-02-14T13:02:40.120Z,11.40
2019-02-14T13:05:09.297Z,11.40
2019-02-14T13:07:38.185Z,11.40
2019-02-14T13:10:12.053Z,11.40
2019-02-14T13:12:40.844Z,11.40
2019-02-14T13:15:12.695Z,11.50
2019-02-14T13:17:42.671Z,11.50
2019-02-14T13:20:12.355Z,11.50
2019-02-14T13:22:41.100Z,11.60
2019-02-14T13:25:11.800Z,11.60
2019-02-14T13:27:40.720Z,11.60
2019-02-14T13:30:12.704Z,11.60
2019-02-14T13:32:43.184Z,11.60
2019-02-14T13:35:11.938Z,11.60
2019-02-14T13:37:40.706Z,11.50
2019-02-14T13:40:13.695Z,11.60
2019-02-14T13:42:42.435Z,11.70
2019-02-14T13:45:25.693Z,11.60
2019-02-14T13:47:54.578Z,11.60
2019-02-14T13:50:23.469Z,11.60
2019-02-14T13:52:52.831Z,11.60
2019-02-14T13:55:23.742Z,11.50
2019-02-14T13:57:52.306Z,11.60
2019-02-14T14:00:25.529Z,11.70
2019-02-14T14:02:56.018Z,11.70
2019-02-14T14:05:29.429Z,11.70
2019-02-14T14:08:10.013Z,11.70
2019-02-14T14:10:38.814Z,11.70
2019-02-14T14:13:10.469Z,11.80
2019-02-14T14:15:53.015Z,11.90
2019-02-14T14:18:21.933Z,11.90
2019-02-14T14:20:50.693Z,12.50
2019-02-14T14:23:22.658Z,14.00
2019-02-14T14:25:51.374Z,15.50
2019-02-14T14:28:20.157Z,16.50
2019-02-14T14:30:49.076Z,17.10
2019-02-14T14:33:29.071Z,17.70
2019-02-14T14:39:24.939Z,18.70
2019-02-14T14:42:01.325Z,18.90
2019-02-14T14:47:11.856Z,18.90
2019-02-14T14:49:43.121Z,18.60
2019-02-14T14:52:17.389Z,18.50
2019-02-14T14:54:46.318Z,18.20
2019-02-14T14:57:15.048Z,18.10
2019-02-14T14:59:43.824Z,18.20
2019-02-14T15:02:13.386Z,18.30
2019-02-14T15:04:42.023Z,18.30
2019-02-14T15:07:10.803Z,18.20
2019-02-14T15:09:42.320Z,17.30
2019-02-14T15:14:52.271Z,14.80
2019-02-14T15:17:22.481Z,13.90
2019-02-14T15:19:51.937Z,13.20
2019-02-14T15:22:20.739Z,12.80
2019-02-14T15:24:51.679Z,12.40
2019-02-14T15:27:20.082Z,12.10
2019-02-14T15:29:50.673Z,11.90
2019-02-14T15:32:19.538Z,11.60
2019-02-14T15:34:48.374Z,11.50
2019-02-14T15:37:17.971Z,11.40
2019-02-14T15:39:46.965Z,11.40
2019-02-14T15:42:15.660Z,11.40
2019-02-14T15:44:44.500Z,11.20
2019-02-14T15:47:13.347Z,11.00
2019-02-14T15:49:42.052Z,11.00
2019-02-14T15:52:10.828Z,11.10
2019-02-14T15:54:39.588Z,11.20
2019-02-14T15:57:08.292Z,11.10
2019-02-14T15:59:37.110Z,11.00
2019-02-14T16:02:06.608Z,11.10
2019-02-14T16:04:36.393Z,11.20
2019-02-14T16:07:05.059Z,11.20
2019-02-14T16:09:33.812Z,11.20
2019-02-14T16:12:02.593Z,11.10
2019-02-14T16:14:31.236Z,11.00
2019-02-14T16:17:00.273Z,10.90
2019-02-14T16:19:29.028Z,10.70
2019-02-14T16:21:57.764Z,10.60
2019-02-14T16:24:26.522Z,10.60
2019-02-14T16:26:55.258Z,10.50
2019-02-14T16:29:25.010Z,10.60
2019-02-14T16:31:54.440Z,10.60
2019-02-14T16:34:23.105Z,10.70
2019-02-14T16:36:52.256Z,10.60
2019-02-14T16:39:23.098Z,10.60
2019-02-14T16:41:51.574Z,10.50
2019-02-14T16:44:20.327Z,10.40
2019-02-14T16:46:49.046Z,10.20
2019-02-14T16:49:17.798Z,10.10
2019-02-14T16:51:46.579Z,10.00
2019-02-14T16:54:15.299Z,9.80
2019-02-14T16:56:44.067Z,9.70
2019-02-14T16:59:12.786Z,9.50
2019-02-14T17:01:41.554Z,9.30
2019-02-14T17:04:10.366Z,9.00
2019-02-14T17:06:39.163Z,8.80
2019-02-14T17:09:08.515Z,8.70
2019-02-14T17:11:37.309Z,8.50
2019-02-14T17:14:06.064Z,8.60
2019-02-14T17:16:34.909Z,8.60
2019-02-14T17:19:03.662Z,8.50
2019-02-14T17:21:32.604Z,8.20
2019-02-14T17:24:01.401Z,8.10
2019-02-14T17:26:30.297Z,8.00
2019-02-14T17:29:01.930Z,7.90
2019-02-14T17:31:30.726Z,7.70
2019-02-14T17:33:59.456Z,7.50
2019-02-14T17:36:28.485Z,7.40
2019-02-14T17:38:57.735Z,7.40
2019-02-14T17:41:26.587Z,7.30
2019-02-14T17:43:55.422Z,7.30
2019-02-14T17:46:24.242Z,7.20
2019-02-14T17:48:53.059Z,7.20
2019-02-14T17:51:21.751Z,7.20
2019-02-14T17:53:50.574Z,7.40
2019-02-14T17:56:19.419Z,7.60
2019-02-14T17:58:48.165Z,7.60
2019-02-14T18:01:16.969Z,7.60
2019-02-14T18:03:45.781Z,7.60
2019-02-14T18:06:14.642Z,7.60
2019-02-14T18:08:46.128Z,7.60
2019-02-14T18:11:14.987Z,7.60
2019-02-14T18:13:43.951Z,7.40
2019-02-14T18:16:12.676Z,7.10
2019-02-14T18:18:41.554Z,6.90
2019-02-14T18:21:10.425Z,6.70
2019-02-14T18:23:39.169Z,6.70
2019-02-14T18:26:08.130Z,6.80
2019-02-14T18:28:36.940Z,7.00
2019-02-14T18:31:06.089Z,7.10
2019-02-14T18:33:34.955Z,7.20
2019-02-14T18:36:03.835Z,7.20
2019-02-14T18:38:32.592Z,7.20
2019-02-14T18:41:04.040Z,7.20
2019-02-14T18:43:32.287Z,7.20
2019-02-14T18:46:01.129Z,7.10
2019-02-14T18:48:29.891Z,6.90
2019-02-14T18:50:58.727Z,6.80
2019-02-14T18:53:30.420Z,6.70
2019-02-14T18:55:59.140Z,6.60
2019-02-14T18:58:28.012Z,6.50
2019-02-14T19:00:56.772Z,6.50
2019-02-14T19:03:25.573Z,6.50
2019-02-14T19:05:57.566Z,6.50
2019-02-14T19:08:26.476Z,6.50
2019-02-14T19:10:55.388Z,6.50
2019-02-14T19:13:24.406Z,6.50
2019-02-14T19:15:55.158Z,6.50
2019-02-14T19:18:26.059Z,6.50
2019-02-14T19:20:54.828Z,6.50
2019-02-14T19:23:24.539Z,6.60
2019-02-14T19:25:53.535Z,6.60
2019-02-14T19:28:22.452Z,6.60
2019-02-14T19:30:51.880Z,6.50
2019-02-14T19:33:20.742Z,6.50
2019-02-14T19:35:49.686Z,6.20
2019-02-14T19:38:18.753Z,6.00
2019-02-14T19:40:47.735Z,5.90
2019-02-14T19:43:16.621Z,5.80
2019-02-14T19:45:45.322Z,5.60
2019-02-14T19:48:19.588Z,5.50
2019-02-14T19:50:48.604Z,5.40
2019-02-14T19:53:17.453Z,5.50
2019-02-14T19:55:46.409Z,5.40
2019-02-14T19:58:15.247Z,5.30
2019-02-14T20:00:44.013Z,5.30
2019-02-14T20:03:12.800Z,5.20
2019-02-14T20:05:41.658Z,5.10
2019-02-14T20:08:13.444Z,5.00
2019-02-14T20:10:42.295Z,4.80
2019-02-14T20:13:11.185Z,4.80
2019-02-14T20:15:41.399Z,4.80
2019-02-14T20:18:10.176Z,4.70
2019-02-14T20:20:39.077Z,4.70
2019-02-14T20:23:08.522Z,4.70
2019-02-14T20:25:40.141Z,4.60
2019-02-14T20:28:10.463Z,4.60
2019-02-14T20:30:40.512Z,4.60
2019-02-14T20:33:09.299Z,4.60
2019-02-14T20:35:38.071Z,4.60
2019-02-14T20:38:07.225Z,4.50
2019-02-14T20:40:36.055Z,4.50
2019-02-14T20:43:07.551Z,4.40
2019-02-14T20:45:36.323Z,4.30
2019-02-14T20:48:06.244Z,4.30
2019-02-14T20:50:34.946Z,4.30
2019-02-14T20:53:03.754Z,4.20
2019-02-14T20:55:32.554Z,4.10
2019-02-14T20:58:01.334Z,4.00
2019-02-14T21:00:31.757Z,3.90
2019-02-14T21:03:00.549Z,3.90
2019-02-14T21:05:36.554Z,3.80
2019-02-14T21:08:08.364Z,3.80
2019-02-14T21:10:41.286Z,3.80
2019-02-14T21:13:22.624Z,3.80
2019-02-14T21:15:58.048Z,3.80
2019-02-14T21:18:26.471Z,3.70
2019-02-14T21:20:55.271Z,3.70
2019-02-14T21:23:28.076Z,3.70
2019-02-14T21:25:56.904Z,3.60
2019-02-14T21:28:25.781Z,3.60
2019-02-14T21:30:57.691Z,3.70
2019-02-14T21:33:26.491Z,3.70
2019-02-14T21:35:55.118Z,3.70
2019-02-14T21:38:23.969Z,3.70
2019-02-14T21:40:52.690Z,3.60
2019-02-14T21:43:21.408Z,3.50
2019-02-14T21:45:50.215Z,3.40
2019-02-14T21:48:19.088Z,3.40
2019-02-14T21:50:48.024Z,3.50
2019-02-14T21:53:18.144Z,3.50
2019-02-14T21:55:47.075Z,3.60
2019-02-14T21:58:15.722Z,3.50
2019-02-14T22:00:44.569Z,3.50
2019-02-14T22:03:13.393Z,3.50
2019-02-14T22:05:42.194Z,3.50
2019-02-14T22:08:11.631Z,3.50
2019-02-14T22:10:40.478Z,3.40
2019-02-14T22:13:09.318Z,3.40
2019-02-14T22:15:38.022Z,3.30
2019-02-14T22:18:06.808Z,3.20
2019-02-14T22:20:35.686Z,3.20
2019-02-14T22:23:04.506Z,3.20
2019-02-14T22:25:34.661Z,3.00
2019-02-14T22:28:03.396Z,3.00
2019-02-14T22:30:32.086Z,3.00
2019-02-14T22:33:00.836Z,3.10
2019-02-14T22:35:29.642Z,3.20
2019-02-14T22:37:58.340Z,3.30
2019-02-14T22:40:27.101Z,3.30
2019-02-14T22:42:55.740Z,3.30
2019-02-14T22:45:24.462Z,3.30
2019-02-14T22:47:53.211Z,3.20
2019-02-14T22:50:21.883Z,3.10
2019-02-14T22:52:50.669Z,3.00
2019-02-14T22:55:19.530Z,3.00
2019-02-14T22:57:48.272Z,3.00
2019-02-14T23:00:20.692Z,2.90
2019-02-14T23:02:49.678Z,2.90
2019-02-14T23:05:18.832Z,3.00
2019-02-14T23:07:47.666Z,3.00
2019-02-14T23:10:16.427Z,3.00
2019-02-14T23:12:45.300Z,3.10
2019-02-14T23:15:14.126Z,3.00
2019-02-14T23:17:42.877Z,2.90
2019-02-14T23:20:11.631Z,2.80
2019-02-14T23:22:40.480Z,2.70
2019-02-14T23:29:22.014Z,2.50
